Time;durP1;ratioP1;P1;durP2;ratioP2;P2;SDS_P1;SDS_P2;PMS_P1;PMS_P2;Temp;Humidity;BMP_temperature;BMP_pressure;BME280_temperature;BME280_humidity;BME280_pressure;Samples;Min_cycle;Max_cycle;Signal;HPM_P1;HPM_P2
2021/12/01 00:00:50;;;;;;;9.32;2.60;;;;;;;9.63;100.00;100030.66;5073394;28;20109;-67
2021/12/01 00:03:15;;;;;;;11.93;2.55;;;;;;;9.65;100.00;100036.72;5072985;28;20111;-68
2021/12/01 00:05:41;;;;;;;9.77;1.98;;;;;;;9.68;100.00;100022.47;5074155;28;20112;-67
2021/12/01 00:08:07;;;;;;;10.68;2.25;;;;;;;9.68;100.00;100018.03;5073171;28;20056;-67
2021/12/01 00:10:35;;;;;;;12.45;2.30;;;;;;;9.74;100.00;100006.25;5074066;28;20424;-70
2021/12/01 00:13:02;;;;;;;9.60;2.22;;;;;;;9.76;100.00;99995.63;5072856;28;20036;-68
2021/12/01 00:15:27;;;;;;;11.23;2.58;;;;;;;9.78;100.00;99978.75;5072992;28;20032;-67
2021/12/01 00:17:53;;;;;;;13.20;2.13;;;;;;;9.83;100.00;99952.03;5073514;28;20074;-67
2021/12/01 00:20:19;;;;;;;16.15;2.80;;;;;;;9.88;100.00;99963.19;5073813;28;20036;-67
2021/12/01 00:22:46;;;;;;;11.90;2.10;;;;;;;9.91;100.00;99962.16;5073014;28;20027;-67
2021/12/01 00:25:14;;;;;;;11.52;1.83;;;;;;;9.92;100.00;99951.50;5072917;28;20035;-68
2021/12/01 00:27:39;;;;;;;9.50;1.92;;;;;;;9.95;100.00;99953.97;5073510;28;20027;-67
2021/12/01 00:30:06;;;;;;;10.88;2.22;;;;;;;9.99;100.00;99938.78;5073813;28;20028;-67
2021/12/01 00:32:33;;;;;;;8.65;2.00;;;;;;;10.04;100.00;99920.00;5072547;28;20024;-67
2021/12/01 00:35:01;;;;;;;7.50;1.92;;;;;;;10.06;100.00;99942.78;5072690;28;20094;-67
2021/12/01 00:37:27;;;;;;;6.00;1.70;;;;;;;10.06;100.00;99912.84;5073651;28;20376;-67
2021/12/01 00:39:52;;;;;;;7.40;1.90;;;;;;;10.00;100.00;99920.19;5072711;28;20032;-67
2021/12/01 00:42:19;;;;;;;8.50;2.05;;;;;;;9.98;100.00;99882.38;5072490;28;20173;-66
2021/12/01 00:44:47;;;;;;;9.23;1.90;;;;;;;9.99;100.00;99918.47;5072790;28;20033;-67
2021/12/01 00:47:13;;;;;;;5.50;1.60;;;;;;;9.95;100.00;99887.88;5072524;28;20036;-70
2021/12/01 00:49:41;;;;;;;3.75;1.92;;;;;;;9.92;100.00;99887.19;5073474;28;20020;-68
2021/12/01 00:52:07;;;;;;;6.38;2.10;;;;;;;9.89;100.00;99887.38;5073522;28;20063;-67
2021/12/01 00:54:33;;;;;;;7.55;1.77;;;;;;;9.89;100.00;99856.47;5072707;28;20111;-68
2021/12/01 00:56:58;;;;;;;7.32;1.80;;;;;;;9.91;100.00;99888.13;5072384;28;20063;-67
2021/12/01 00:59:24;;;;;;;8.20;1.98;;;;;;;9.91;100.00;99878.41;5055429;28;20047;-67
2021/12/01 01:01:49;;;;;;;5.43;1.90;;;;;;;9.91;100.00;99881.06;5072289;28;20029;-67
2021/12/01 01:04:15;;;;;;;7.07;2.00;;;;;;;9.94;100.00;99853.59;5073269;28;20421;-67
2021/12/01 01:06:42;;;;;;;6.30;1.83;;;;;;;9.98;100.00;99873.59;5087072;28;20043;-68
2021/12/01 01:09:09;;;;;;;7.13;2.47;;;;;;;9.97;100.00;99858.69;5090935;28;20031;-69
2021/12/01 01:17:09;;;;;;;4.88;2.00;;;;;;;10.02;100.00;99840.75;5092652;28;20560;-67
2021/12/01 01:19:36;;;;;;;7.90;1.80;;;;;;;10.08;98.68;99826.31;5091583;28;20479;-66
2021/12/01 01:22:04;;;;;;;6.72;2.10;;;;;;;10.10;98.11;99820.00;5072697;28;20115;-67
2021/12/01 01:24:30;;;;;;;8.88;1.77;;;;;;;10.13;97.77;99811.03;5072868;28;20395;-67
2021/12/01 01:26:58;;;;;;;10.95;2.17;;;;;;;10.12;98.05;99807.50;5072027;28;20361;-67
2021/12/01 01:29:25;;;;;;;13.77;1.90;;;;;;;10.16;97.00;99805.53;5072117;28;20086;-68
2021/12/01 01:31:53;;;;;;;9.57;1.92;;;;;;;10.19;96.84;99781.53;5073178;28;20029;-68
2021/12/01 01:34:18;;;;;;;11.90;1.77;;;;;;;10.22;96.51;99788.44;5069909;28;20032;-68
2021/12/01 01:36:44;;;;;;;10.57;1.88;;;;;;;10.22;96.42;99775.22;5071747;28;20070;-72
2021/12/01 01:39:09;;;;;;;13.93;2.30;;;;;;;10.21;96.61;99683.59;5071786;28;20392;-68
2021/12/01 01:41:35;;;;;;;12.35;2.72;;;;;;;10.23;96.43;99777.78;5073261;28;20154;-68
2021/12/01 01:44:00;;;;;;;9.30;2.10;;;;;;;10.17;96.98;99771.06;5072012;28;20024;-69
2021/12/01 01:46:35;;;;;;;12.43;2.00;;;;;;;10.21;96.32;99745.28;5073095;28;20052;-68
2021/12/01 01:49:09;;;;;;;8.85;1.85;;;;;;;10.23;96.10;99738.09;5072152;28;20032;-68
2021/12/01 01:51:34;;;;;;;9.73;1.75;;;;;;;10.24;95.36;99717.78;5072364;28;20075;-68
2021/12/01 01:54:00;;;;;;;7.10;1.40;;;;;;;10.22;95.26;99722.28;5073610;28;20072;-68
2021/12/01 01:56:26;;;;;;;5.80;1.48;;;;;;;10.21;95.10;99710.03;5076325;28;20040;-68
2021/12/01 01:58:53;;;;;;;8.05;1.65;;;;;;;10.19;95.19;99706.63;5075695;28;20032;-68
2021/12/01 02:01:44;;;;;;;9.52;1.40;;;;;;;10.20;95.25;99710.97;5075518;28;20110;-68
2021/12/01 02:04:06;;;;;;;6.07;1.70;;;;;;;10.14;95.68;99710.41;5077316;28;20484;-68
2021/12/01 02:06:32;;;;;;;7.97;1.73;;;;;;;10.15;95.78;99688.31;5075800;28;20039;-68
2021/12/01 02:08:58;;;;;;;11.13;1.80;;;;;;;10.14;95.68;99680.44;5093924;28;20027;-68
2021/12/01 02:11:26;;;;;;;7.45;1.60;;;;;;;10.16;95.27;99683.84;5055342;28;20017;-68
2021/12/01 02:13:51;;;;;;;11.90;1.70;;;;;;;10.10;95.80;99674.50;5066442;28;20055;-68
2021/12/01 02:16:20;;;;;;;5.32;1.25;;;;;;;10.10;96.03;99637.47;5075590;28;20464;-68
2021/12/01 02:18:46;;;;;;;8.63;2.50;;;;;;;10.10;95.82;99648.06;5076280;28;20100;-69
2021/12/01 02:21:13;;;;;;;5.20;1.80;;;;;;;10.11;95.78;99654.19;5074808;28;20112;-67
2021/12/01 02:23:47;;;;;;;4.38;1.85;;;;;;;10.11;95.86;99623.28;5076252;28;20029;-69
2021/12/01 02:26:14;;;;;;;6.35;1.98;;;;;;;10.13;95.93;99610.00;5075037;28;20102;-68
2021/12/01 02:28:42;;;;;;;9.10;2.05;;;;;;;10.13;95.68;99631.16;5076275;28;20032;-68
2021/12/01 02:31:08;;;;;;;3.45;1.60;;;;;;;10.13;95.65;99616.13;5075172;28;20392;-69
2021/12/01 02:33:33;;;;;;;4.53;1.60;;;;;;;10.14;95.56;99622.25;5074787;28;20017;-69
2021/12/01 02:35:59;;;;;;;6.28;1.45;;;;;;;10.10;96.09;99611.03;5075765;28;20056;-69
2021/12/01 02:38:25;;;;;;;2.95;1.40;;;;;;;10.06;95.73;99592.78;5075967;28;20055;-68
2021/12/01 02:40:51;;;;;;;5.50;1.55;;;;;;;10.07;96.16;99610.38;5075143;28;20028;-68
2021/12/01 02:43:16;;;;;;;4.68;1.90;;;;;;;10.03;96.14;99612.34;5074838;28;20020;-68
2021/12/01 02:45:43;;;;;;;3.70;1.65;;;;;;;9.98;96.98;99601.22;5075669;28;20049;-69
2021/12/01 02:48:13;;;;;;;3.63;1.63;;;;;;;9.86;98.15;99568.44;5074645;28;20036;-68
2021/12/01 02:50:40;;;;;;;4.57;1.67;;;;;;;9.73;99.31;99580.72;5075387;28;20028;-67
2021/12/01 02:53:06;;;;;;;4.15;1.90;;;;;;;9.62;100.00;99576.09;5074122;28;20592;-68
2021/12/01 02:55:32;;;;;;;2.88;1.88;;;;;;;9.54;100.00;99562.50;5073969;28;20033;-67
2021/12/01 02:57:59;;;;;;;3.17;2.70;;;;;;;9.48;100.00;99572.50;5073223;28;20491;-67
2021/12/01 03:00:25;;;;;;;4.38;2.40;;;;;;;9.41;100.00;99546.53;5074110;28;20029;-67
2021/12/01 03:02:52;;;;;;;3.53;2.78;;;;;;;9.33;100.00;99536.44;5073930;28;20028;-68
2021/12/01 03:05:19;;;;;;;5.43;3.20;;;;;;;9.26;100.00;99533.31;5073462;28;20040;-68
2021/12/01 03:07:45;;;;;;;3.92;3.10;;;;;;;9.22;100.00;99529.16;5061459;28;20385;-68
2021/12/01 03:10:12;;;;;;;5.75;3.40;;;;;;;9.21;100.00;99489.63;5054886;28;20048;-68
2021/12/01 03:12:39;;;;;;;6.07;3.40;;;;;;;9.18;100.00;99499.44;5073204;28;20025;-68
2021/12/01 03:15:07;;;;;;;7.95;3.70;;;;;;;9.17;100.00;99491.63;5074237;28;20040;-67
2021/12/01 03:17:32;;;;;;;4.95;3.67;;;;;;;9.16;100.00;99500.47;5068372;28;20495;-68
2021/12/01 03:19:58;;;;;;;5.75;3.35;;;;;;;9.16;100.00;99484.63;5053953;28;20029;-68
2021/12/01 03:22:25;;;;;;;6.32;3.70;;;;;;;9.14;100.00;99475.94;5067425;28;20033;-69
2021/12/01 03:24:51;;;;;;;8.20;4.30;;;;;;;9.10;100.00;99467.34;5074188;28;20024;-68
2021/12/01 03:27:17;;;;;;;6.55;4.35;;;;;;;9.05;100.00;99458.88;5073895;28;20029;-70
2021/12/01 03:29:45;;;;;;;8.68;4.13;;;;;;;9.01;100.00;99437.09;5055335;28;20104;-68
2021/12/01 03:32:11;;;;;;;7.25;4.50;;;;;;;9.00;100.00;99402.84;5060073;28;20028;-69
2021/12/01 03:34:37;;;;;;;6.25;4.50;;;;;;;8.97;100.00;99435.56;5074198;28;20028;-68
2021/12/01 03:37:03;;;;;;;7.68;3.88;;;;;;;8.95;100.00;99411.06;5073581;28;20030;-68
2021/12/01 03:39:29;;;;;;;5.43;3.35;;;;;;;8.93;100.00;99427.94;5062114;28;20118;-69
2021/12/01 03:41:54;;;;;;;5.63;3.60;;;;;;;8.90;100.00;99428.97;5053862;28;20055;-68
2021/12/01 03:44:20;;;;;;;6.18;3.25;;;;;;;8.83;100.00;99417.91;5071488;28;20098;-67
2021/12/01 03:46:45;;;;;;;4.75;3.22;;;;;;;8.80;100.00;99394.38;5073526;28;20024;-68
2021/12/01 03:49:10;;;;;;;4.90;3.30;;;;;;;8.75;100.00;99408.78;5070287;28;20472;-68
2021/12/01 03:51:36;;;;;;;6.63;3.28;;;;;;;8.73;100.00;99358.72;5053411;28;20460;-68
2021/12/01 03:54:02;;;;;;;6.45;3.20;;;;;;;8.66;100.00;99391.72;5062399;28;20082;-68
2021/12/01 03:56:30;;;;;;;5.88;3.50;;;;;;;8.66;100.00;99339.78;5073008;28;20032;-68
2021/12/01 03:58:56;;;;;;;7.50;3.90;;;;;;;8.65;100.00;99364.47;5073293;28;20047;-68
2021/12/01 04:01:21;;;;;;;8.30;3.72;;;;;;;8.61;100.00;99376.16;5071640;28;20028;-68
2021/12/01 04:03:47;;;;;;;5.82;3.92;;;;;;;8.56;100.00;99372.09;5073042;28;20412;-69
2021/12/01 04:06:12;;;;;;;6.13;4.03;;;;;;;8.53;100.00;99365.22;5073156;28;20487;-68
2021/12/01 04:08:37;;;;;;;7.47;4.35;;;;;;;8.52;100.00;99358.25;5073172;28;20052;-68
2021/12/01 04:11:03;;;;;;;9.15;6.85;;;;;;;8.51;100.00;99354.72;5065394;28;20023;-69
2021/12/01 04:13:28;;;;;;;6.72;4.80;;;;;;;8.51;100.00;99311.69;5052981;28;20033;-69
2021/12/01 04:15:54;;;;;;;7.13;4.55;;;;;;;8.50;100.00;99336.38;5067786;28;20024;-69
2021/12/01 04:18:19;;;;;;;12.15;8.02;;;;;;;8.47;100.00;99326.00;5073121;28;20021;-69
2021/12/01 04:20:44;;;;;;;7.45;5.25;;;;;;;8.47;100.00;99312.81;5072162;28;20126;-69
2021/12/01 04:23:13;;;;;;;7.82;4.70;;;;;;;8.46;100.00;99298.75;5053615;28;20032;-68
2021/12/01 04:25:38;;;;;;;10.18;5.55;;;;;;;8.46;100.00;99317.22;5060175;28;20115;-68
2021/12/01 04:28:04;;;;;;;14.25;9.60;;;;;;;8.48;100.00;99306.59;5072896;28;20098;-68
2021/12/01 04:30:30;;;;;;;6.85;4.45;;;;;;;8.46;100.00;99287.38;5073064;28;20032;-70
2021/12/01 04:32:56;;;;;;;7.95;5.90;;;;;;;8.46;100.00;99293.50;5070834;28;20059;-68
2021/12/01 04:35:25;;;;;;;17.20;11.82;;;;;;;8.48;100.00;99290.78;5072415;28;20070;-68
2021/12/01 04:37:51;;;;;;;10.73;6.13;;;;;;;8.46;100.00;99280.28;5071213;28;20060;-68
2021/12/01 04:40:17;;;;;;;8.68;5.72;;;;;;;8.48;100.00;99262.59;5054197;28;20094;-68
2021/12/01 04:42:43;;;;;;;13.32;9.48;;;;;;;8.51;100.00;99261.56;5067327;28;20032;-70
2021/12/01 04:45:18;;;;;;;7.28;4.82;;;;;;;8.53;100.00;99264.97;5052804;28;20455;-68
2021/12/01 04:47:47;;;;;;;6.75;4.90;;;;;;;8.51;100.00;99241.28;5052568;28;20029;-68
2021/12/01 04:50:13;;;;;;;6.38;4.90;;;;;;;8.53;100.00;99214.84;5057675;28;20031;-68
2021/12/01 04:52:39;;;;;;;6.43;5.30;;;;;;;8.56;100.00;99248.09;5072494;28;20056;-68
2021/12/01 04:55:05;;;;;;;9.30;5.28;;;;;;;8.55;100.00;99252.50;5069903;28;20087;-68
2021/12/01 04:57:31;;;;;;;9.02;5.45;;;;;;;8.56;100.00;99238.38;5054377;28;20033;-68
2021/12/01 04:59:56;;;;;;;6.20;4.90;;;;;;;8.56;100.00;99234.91;5072531;28;20082;-69
2021/12/01 05:02:22;;;;;;;9.48;5.45;;;;;;;8.58;100.00;99241.78;5072067;28;20028;-68
2021/12/01 05:04:47;;;;;;;7.60;5.07;;;;;;;8.59;100.00;99239.97;5061791;28;20036;-68
2021/12/01 05:07:13;;;;;;;8.02;5.07;;;;;;;8.55;100.00;99247.22;5052121;28;20032;-68
2021/12/01 05:09:39;;;;;;;9.05;5.15;;;;;;;8.55;100.00;99215.56;5052170;28;20029;-68
2021/12/01 05:12:07;;;;;;;7.63;4.88;;;;;;;8.52;100.00;99215.78;5063126;28;20051;-69
2021/12/01 05:14:37;;;;;;;6.50;4.68;;;;;;;8.53;100.00;99214.84;5068764;28;20039;-68
2021/12/01 05:17:03;;;;;;;7.63;5.00;;;;;;;8.55;100.00;99218.22;5052373;28;20024;-68
2021/12/01 05:19:29;;;;;;;8.95;4.70;;;;;;;8.57;100.00;99202.28;5052084;28;20067;-68
2021/12/01 05:21:54;;;;;;;8.43;4.40;;;;;;;8.58;100.00;99218.03;5055711;28;20032;-68
2021/12/01 05:24:20;;;;;;;6.00;4.38;;;;;;;8.60;100.00;99215.28;5071759;28;20040;-68
2021/12/01 05:26:46;;;;;;;5.10;3.85;;;;;;;8.56;100.00;99206.72;5055386;28;20033;-70
2021/12/01 05:29:12;;;;;;;9.43;4.30;;;;;;;8.56;100.00;99208.53;5054268;28;20037;-73
2021/12/01 05:31:37;;;;;;;7.80;3.83;;;;;;;8.58;100.00;99190.78;5056189;28;20108;-68
2021/12/01 05:34:03;;;;;;;5.85;3.85;;;;;;;8.56;100.00;99192.69;5066316;28;20033;-69
2021/12/01 05:36:28;;;;;;;7.75;3.70;;;;;;;8.60;100.00;99205.56;5067670;28;20060;-69
2021/12/01 05:38:54;;;;;;;4.90;3.50;;;;;;;8.60;100.00;99179.19;5055784;28;20100;-69
2021/12/01 05:41:19;;;;;;;5.53;3.13;;;;;;;8.63;100.00;99173.72;5055672;28;20082;-69
2021/12/01 05:43:45;;;;;;;4.80;2.70;;;;;;;8.63;100.00;99179.00;5058071;28;20021;-71
2021/12/01 05:46:10;;;;;;;7.80;2.50;;;;;;;8.64;100.00;99180.69;5075078;28;20107;-68
2021/12/01 05:48:36;;;;;;;5.28;2.67;;;;;;;8.68;100.00;99194.53;5059003;28;20072;-67
2021/12/01 05:51:01;;;;;;;6.15;2.90;;;;;;;8.68;100.00;99190.13;5055619;28;20024;-68
2021/12/01 05:53:26;;;;;;;5.32;2.38;;;;;;;8.71;100.00;99183.81;5055576;28;20102;-68
2021/12/01 05:55:53;;;;;;;3.25;2.47;;;;;;;8.72;100.00;99167.03;5055575;28;20385;-69
2021/12/01 05:58:18;;;;;;;4.85;2.58;;;;;;;8.75;100.00;99174.72;5056543;28;20025;-68
2021/12/01 06:00:44;;;;;;;5.45;2.45;;;;;;;8.77;100.00;99161.44;5075030;28;20064;-68
2021/12/01 06:03:09;;;;;;;4.97;2.63;;;;;;;8.75;100.00;99158.91;5075550;28;20025;-69
2021/12/01 06:05:36;;;;;;;5.57;2.78;;;;;;;8.73;100.00;99159.94;5075398;28;20111;-67
2021/12/01 06:08:01;;;;;;;7.43;3.80;;;;;;;8.75;100.00;99158.91;5071835;28;20060;-68
2021/12/01 06:10:26;;;;;;;6.70;2.90;;;;;;;8.74;100.00;99170.41;5068134;28;20122;-69
2021/12/01 06:12:52;;;;;;;5.97;3.20;;;;;;;8.79;100.00;99149.00;5070286;28;20118;-68
2021/12/01 06:15:18;;;;;;;5.70;3.00;;;;;;;8.82;100.00;99130.31;5055469;28;20021;-69
2021/12/01 06:17:43;;;;;;;5.60;3.05;;;;;;;8.82;100.00;99141.72;5055303;28;20021;-69
2021/12/01 06:20:11;;;;;;;9.05;3.60;;;;;;;8.81;100.00;99144.44;5060010;28;20056;-68
2021/12/01 06:22:37;;;;;;;7.28;3.53;;;;;;;8.75;100.00;99142.22;5074373;28;20498;-68
2021/12/01 06:25:02;;;;;;;7.13;3.65;;;;;;;8.67;100.00;99140.91;5074620;28;20020;-68
2021/12/01 06:27:28;;;;;;;6.63;3.15;;;;;;;8.68;100.00;99139.13;5074065;28;20578;-68
2021/12/01 06:29:54;;;;;;;5.88;2.80;;;;;;;8.69;100.00;99119.69;5073953;28;20115;-68
2021/12/01 06:32:20;;;;;;;5.18;2.80;;;;;;;8.64;100.00;99117.34;5074075;28;20116;-67
2021/12/01 06:34:45;;;;;;;6.22;3.15;;;;;;;8.65;100.00;99112.94;5056553;28;20056;-69
2021/12/01 06:37:11;;;;;;;8.00;2.88;;;;;;;8.65;100.00;99139.31;5075108;28;20029;-70
2021/12/01 06:39:36;;;;;;;6.78;2.53;;;;;;;8.66;100.00;99117.28;5074387;28;20031;-69
2021/12/01 06:42:02;;;;;;;5.43;2.63;;;;;;;8.66;100.00;99104.09;5067254;28;20493;-73
2021/12/01 06:44:30;;;;;;;5.40;2.60;;;;;;;8.63;100.00;99083.16;5059240;28;20024;-72
2021/12/01 06:46:56;;;;;;;5.00;2.42;;;;;;;8.63;100.00;99099.84;5067222;28;20163;-69
2021/12/01 06:49:21;;;;;;;5.55;2.30;;;;;;;8.67;100.00;99079.38;5054616;28;20468;-69
2021/12/01 06:51:46;;;;;;;7.20;2.33;;;;;;;8.68;100.00;99083.69;5068965;28;20067;-68
2021/12/01 06:54:12;;;;;;;8.57;2.38;;;;;;;8.69;100.00;99077.47;5094392;28;20483;-72
2021/12/01 06:56:37;;;;;;;5.07;2.42;;;;;;;8.72;100.00;99097.53;5078247;28;20538;-69
2021/12/01 06:59:03;;;;;;;8.15;2.30;;;;;;;8.70;100.00;99084.47;5073416;28;20046;-69
2021/12/01 07:01:28;;;;;;;8.02;2.45;;;;;;;8.72;100.00;99081.72;5066584;28;20047;-69
2021/12/01 07:03:53;;;;;;;7.43;2.40;;;;;;;8.74;100.00;99085.09;5077030;28;20151;-68
2021/12/01 07:06:19;;;;;;;6.38;2.40;;;;;;;8.77;100.00;99098.09;5075543;28;20094;-68
2021/12/01 07:08:44;;;;;;;4.85;2.42;;;;;;;8.77;100.00;99082.25;5074073;28;20027;-68
2021/12/01 07:11:10;;;;;;;9.70;2.70;;;;;;;8.76;100.00;99083.19;5074197;28;20295;-67
2021/12/01 07:13:36;;;;;;;10.00;2.60;;;;;;;8.76;100.00;99078.78;5073717;28;20090;-68
2021/12/01 07:16:01;;;;;;;10.65;3.28;;;;;;;8.78;100.00;99066.31;5074956;28;20106;-69
2021/12/01 07:18:27;;;;;;;10.80;3.20;;;;;;;8.82;100.00;99062.56;5064214;28;20078;-70
2021/12/01 07:20:53;;;;;;;8.82;3.08;;;;;;;8.80;100.00;99053.03;5063037;28;20032;-68
2021/12/01 07:23:18;;;;;;;10.82;2.85;;;;;;;8.83;100.00;99068.66;5067514;28;20116;-71
2021/12/01 07:25:50;;;;;;;11.65;3.13;;;;;;;8.88;100.00;99055.16;5053839;28;20060;-66
2021/12/01 07:28:15;;;;;;;9.18;2.63;;;;;;;8.85;100.00;99062.34;5063871;28;20028;-67
2021/12/01 07:30:41;;;;;;;8.30;2.10;;;;;;;8.85;100.00;99067.59;5057648;28;20028;-69
2021/12/01 07:33:07;;;;;;;8.60;2.22;;;;;;;8.83;100.00;99043.09;5062260;28;20023;-68
2021/12/01 07:35:32;;;;;;;9.35;2.60;;;;;;;8.82;100.00;99085.44;5060816;28;20115;-70
2021/12/01 07:37:58;;;;;;;8.32;2.50;;;;;;;8.80;100.00;99085.53;5064739;28;20092;-69
2021/12/01 07:40:23;;;;;;;10.98;2.50;;;;;;;8.77;100.00;99076.97;5053583;28;20115;-69
2021/12/01 07:42:48;;;;;;;12.32;2.80;;;;;;;8.76;100.00;99072.63;5052944;28;20070;-69
2021/12/01 07:45:14;;;;;;;8.70;2.63;;;;;;;8.82;100.00;99082.78;5064403;28;20146;-68
2021/12/01 07:47:40;;;;;;;9.88;2.83;;;;;;;8.78;100.00;99092.72;5068511;28;20032;-68
2021/12/01 07:50:07;;;;;;;9.48;2.65;;;;;;;8.80;100.00;99104.03;5084139;28;20039;-67
2021/12/01 07:52:35;;;;;;;15.52;2.40;;;;;;;8.74;99.72;99083.31;5073431;28;20054;-70
2021/12/01 07:55:00;;;;;;;13.13;2.55;;;;;;;8.74;96.23;99078.03;5052108;28;20028;-69
2021/12/01 07:57:26;;;;;;;10.68;2.05;;;;;;;8.70;91.96;99095.00;5065104;28;20082;-70
2021/12/01 07:59:51;;;;;;;11.73;2.67;;;;;;;8.56;93.47;99090.63;5073036;28;20468;-69
2021/12/01 08:02:16;;;;;;;11.70;2.25;;;;;;;8.49;93.78;99105.16;5071573;28;20081;-68
2021/12/01 08:04:44;;;;;;;12.35;2.08;;;;;;;8.48;93.74;99061.28;5055505;28;20025;-69
2021/12/01 08:07:10;;;;;;;6.32;1.50;;;;;;;8.58;89.48;99085.25;5062844;28;20105;-69
2021/12/01 08:09:35;;;;;;;3.67;1.33;;;;;;;8.57;89.17;99088.81;5063203;28;20111;-67
2021/12/01 08:12:01;;;;;;;7.32;1.50;;;;;;;8.51;89.87;99114.66;5054169;28;20473;-68
2021/12/01 08:14:26;;;;;;;6.95;2.85;;;;;;;8.46;90.99;99108.00;5052927;28;20155;-69
2021/12/01 08:16:52;;;;;;;9.15;1.65;;;;;;;8.47;91.92;99120.25;5056566;28;20074;-69
2021/12/01 08:19:18;;;;;;;10.85;1.70;;;;;;;8.36;93.62;99134.94;5075827;28;20054;-69
2021/12/01 08:21:47;;;;;;;8.23;2.17;;;;;;;8.30;93.86;99121.25;5072701;28;20020;-70
2021/12/01 08:24:13;;;;;;;6.78;1.50;;;;;;;8.27;94.13;99130.22;5073132;28;20047;-70
2021/12/01 08:26:40;;;;;;;7.25;1.58;;;;;;;8.23;94.66;99120.81;5080865;28;20032;-69
2021/12/01 08:29:06;;;;;;;8.25;2.00;;;;;;;8.21;94.43;99117.44;5071042;28;20123;-70
2021/12/01 08:31:31;;;;;;;7.93;1.85;;;;;;;8.22;95.00;99120.91;5071938;28;20107;-70
2021/12/01 08:33:57;;;;;;;11.43;1.92;;;;;;;8.21;95.24;99104.25;5072380;28;20035;-70
2021/12/01 08:36:22;;;;;;;6.20;1.50;;;;;;;8.23;94.92;99119.97;5072871;28;20069;-69
2021/12/01 08:38:47;;;;;;;11.95;1.75;;;;;;;8.29;94.40;99115.16;5057693;28;20428;-68
2021/12/01 08:41:13;;;;;;;7.03;1.48;;;;;;;8.34;93.76;99125.41;5062464;28;20437;-68
2021/12/01 08:43:38;;;;;;;8.02;1.60;;;;;;;8.37;92.58;99130.50;5070201;28;20028;-69
2021/12/01 08:46:05;;;;;;;7.68;1.55;;;;;;;8.35;92.25;99135.00;5075725;28;20032;-70
2021/12/01 08:48:30;;;;;;;6.78;1.85;;;;;;;8.46;93.04;99153.66;5060274;28;20064;-69
2021/12/01 08:50:58;;;;;;;12.88;2.80;;;;;;;8.57;93.07;99160.94;5057839;28;20060;-69
2021/12/01 08:53:24;;;;;;;11.45;2.20;;;;;;;8.59;92.50;99160.81;5080446;28;20055;-70
2021/12/01 08:55:49;;;;;;;5.53;1.73;;;;;;;8.52;92.74;99152.47;5065230;28;20044;-70
2021/12/01 08:58:16;;;;;;;9.02;1.70;;;;;;;8.42;93.15;99178.53;5085799;28;20430;-74
2021/12/01 09:00:45;;;;;;;7.82;2.05;;;;;;;8.34;94.02;99172.91;5069721;28;20099;-70
2021/12/01 09:03:14;;;;;;;6.53;1.95;;;;;;;8.28;93.93;99170.63;5066887;28;20020;-70
2021/12/01 09:05:42;;;;;;;11.93;1.70;;;;;;;8.27;94.41;99180.31;5068859;28;20032;-69
2021/12/01 09:08:09;;;;;;;8.20;1.70;;;;;;;8.24;94.26;99180.53;5076282;28;20028;-71
2021/12/01 09:10:35;;;;;;;8.80;1.65;;;;;;;8.31;94.96;99173.06;5073037;28;20028;-69
2021/12/01 09:13:02;;;;;;;7.63;1.42;;;;;;;8.34;94.36;99178.16;5089980;28;20092;-72
2021/12/01 09:15:28;;;;;;;4.65;1.33;;;;;;;8.44;93.79;99191.63;5084026;28;20111;-69
2021/12/01 09:17:53;;;;;;;5.85;1.65;;;;;;;8.46;93.53;99190.59;5036469;28;20127;-71
2021/12/01 09:20:19;;;;;;;6.43;1.30;;;;;;;8.31;95.05;99215.25;5059983;28;20055;-71
2021/12/01 09:22:47;;;;;;;6.82;1.95;;;;;;;8.09;96.08;99213.09;5072220;28;20031;-68
2021/12/01 09:25:12;;;;;;;9.65;2.20;;;;;;;7.93;97.47;99210.53;5071241;28;20024;-69
2021/12/01 09:27:38;;;;;;;9.35;1.90;;;;;;;7.84;98.08;99207.53;5048484;28;20468;-69
2021/12/01 09:30:05;;;;;;;11.35;2.08;;;;;;;7.76;98.49;99212.38;5066583;28;20040;-68
2021/12/01 09:32:34;;;;;;;5.95;1.70;;;;;;;7.76;98.87;99193.94;5063722;28;20480;-69
2021/12/01 09:35:00;;;;;;;10.13;2.42;;;;;;;7.82;98.94;99190.09;5069902;28;20111;-69
2021/12/01 09:37:26;;;;;;;9.90;2.20;;;;;;;7.87;97.60;99199.41;5067516;28;20527;-70
2021/12/01 09:39:51;;;;;;;9.95;1.92;;;;;;;7.93;97.60;99200.84;5072360;28;20070;-70
2021/12/01 09:42:17;;;;;;;13.65;1.98;;;;;;;7.94;96.93;99207.81;5059403;28;20029;-69
2021/12/01 09:44:43;;;;;;;14.30;2.38;;;;;;;7.99;96.58;99208.41;5071665;28;20435;-70
2021/12/01 09:47:08;;;;;;;11.25;2.05;;;;;;;8.08;95.46;99214.03;5070736;28;20094;-69
2021/12/01 09:49:34;;;;;;;8.02;2.08;;;;;;;8.11;94.94;99216.50;5064223;28;20108;-69
2021/12/01 09:51:59;;;;;;;10.27;1.88;;;;;;;8.03;94.91;99217.81;5043171;28;20047;-70
2021/12/01 09:54:24;;;;;;;10.05;2.20;;;;;;;7.97;95.31;99233.16;5072027;28;20020;-70
2021/12/01 09:56:50;;;;;;;8.05;1.63;;;;;;;7.91;95.64;99228.25;5071730;28;20555;-70
2021/12/01 09:59:18;;;;;;;10.52;2.00;;;;;;;7.93;95.70;99236.88;5073296;28;20578;-70
2021/12/01 10:01:43;;;;;;;8.27;1.48;;;;;;;7.87;95.54;99238.94;5071764;28;20024;-70
2021/12/01 10:06:47;;;;;;;9.13;1.83;;;;;;;7.83;96.62;99223.44;5158663;23;20449;-70
2021/12/01 10:09:24;;;;;;;10.43;2.67;;;;;;;7.77;97.41;99219.34;5008764;28;20041;-70
2021/12/01 10:11:51;;;;;;;11.10;2.20;;;;;;;7.78;96.80;99228.13;4991881;28;20022;-70
2021/12/01 10:14:34;;;;;;;7.78;2.30;;;;;;;7.85;97.71;99222.41;5004210;28;20121;-69
2021/12/01 10:17:00;;;;;;;15.40;2.38;;;;;;;7.94;96.53;99218.38;5011361;28;20485;-70
2021/12/01 10:19:25;;;;;;;15.13;2.20;;;;;;;7.95;96.65;99208.66;5014105;28;20028;-70
2021/12/01 10:21:54;;;;;;;16.08;2.20;;;;;;;7.94;96.68;99215.72;5017208;28;20029;-69
2021/12/01 10:24:25;;;;;;;10.45;2.22;;;;;;;7.95;96.16;99209.50;5013582;28;20072;-71
2021/12/01 10:27:02;;;;;;;10.98;2.10;;;;;;;8.00;95.61;99201.31;5034535;28;20057;-70
2021/12/01 10:29:34;;;;;;;12.00;2.20;;;;;;;8.08;95.20;99214.91;5028140;28;20030;-69
2021/12/01 10:32:07;;;;;;;;;;;;;;;8.20;95.22;99200.94;5016733;28;20022;-70
2021/12/01 10:34:43;;;;;;;12.10;2.22;;;;;;;8.29;93.09;99201.34;5020160;28;20374;-70
2021/12/01 10:37:08;;;;;;;8.93;2.00;;;;;;;8.37;92.06;99201.72;5035412;28;20030;-69
2021/12/01 10:39:37;;;;;;;10.73;2.05;;;;;;;8.41;92.56;99199.72;5023751;28;20039;-69
2021/12/01 10:42:05;;;;;;;10.50;2.38;;;;;;;8.45;91.99;99195.94;5022653;28;20040;-69
2021/12/01 10:44:33;;;;;;;9.38;1.98;;;;;;;8.45;91.15;99196.81;5033875;28;20057;-69
2021/12/01 10:47:06;;;;;;;14.20;2.65;;;;;;;8.43;91.83;99211.03;5014967;28;20083;-69
2021/12/01 10:49:35;;;;;;;7.28;1.98;;;;;;;8.48;91.49;99207.19;5024823;28;20060;-69
2021/12/01 10:52:01;;;;;;;6.78;1.58;;;;;;;8.46;89.07;99192.41;5005236;28;20045;-70
2021/12/01 10:54:26;;;;;;;11.13;2.65;;;;;;;8.49;89.45;99202.75;5015135;28;20030;-71
2021/12/01 10:57:21;;;;;;;10.55;1.77;;;;;;;8.53;89.11;99204.28;5027740;28;20564;-69
2021/12/01 10:59:52;;;;;;;8.20;2.30;;;;;;;8.53;87.58;99199.00;5034308;28;20041;-70
2021/12/01 11:02:19;;;;;;;11.90;2.15;;;;;;;8.49;87.53;99195.72;5014491;28;20397;-70
2021/12/01 11:04:52;;;;;;;8.90;1.92;;;;;;;8.49;87.49;99214.19;5024565;28;20129;-70
2021/12/01 11:07:28;;;;;;;7.20;1.83;;;;;;;8.50;86.94;99210.59;5016521;28;20045;-71
2021/12/01 11:10:18;;;;;;;8.13;1.60;;;;;;;8.58;86.29;99204.84;5034483;28;20037;-72
2021/12/01 11:12:56;;;;;;;8.80;2.00;;;;;;;8.62;85.58;99202.81;5027848;28;20033;-72
2021/12/01 11:15:33;;;;;;;10.73;2.00;;;;;;;8.68;85.21;99202.44;5014837;28;20048;-71
2021/12/01 11:18:00;;;;;;;10.60;1.90;;;;;;;8.69;84.56;99212.06;5023180;28;20048;-74
2021/12/01 11:20:45;;;;;;;8.25;1.95;;;;;;;8.66;84.89;99209.63;5030672;28;20029;-72
2021/12/01 11:23:30;;;;;;;11.70;2.10;;;;;;;8.61;84.71;99201.16;5014330;28;20050;-70
2021/12/01 11:26:07;;;;;;;9.55;2.17;;;;;;;8.61;85.63;99204.63;5020572;28;20033;-70
2021/12/01 11:28:45;;;;;;;7.55;2.20;;;;;;;8.58;85.79;99212.75;5025893;28;20026;-69
2021/12/01 11:31:25;;;;;;;9.95;1.67;;;;;;;8.61;85.46;99206.44;5015522;28;20021;-70
2021/12/01 11:33:55;;;;;;;9.38;1.40;;;;;;;8.64;85.70;99208.88;5017339;28;20029;-70
2021/12/01 11:36:25;;;;;;;7.40;1.90;;;;;;;8.66;85.02;99204.34;5033895;28;20051;-71
2021/12/01 11:38:55;;;;;;;7.85;1.77;;;;;;;8.71;84.17;99204.03;5009980;28;20025;-71
2021/12/01 11:41:21;;;;;;;12.35;1.90;;;;;;;8.62;83.91;99213.38;5013396;28;20482;-71